createdAt,value
2017-11-18T00:00:41.778Z,0
2017-11-18T00:01:41.771Z,0
2017-11-18T00:02:41.483Z,0
2017-11-18T00:03:41.992Z,0
2017-11-18T00:04:41.691Z,0
2017-11-18T00:05:41.955Z,0
2017-11-18T00:06:41.117Z,0
2017-11-18T00:07:41.631Z,0
2017-11-18T00:08:41.345Z,0
2017-11-18T00:09:41.585Z,0
2017-11-18T00:10:41.569Z,0
2017-11-18T00:11:41.283Z,0
2017-11-18T00:12:41.265Z,0
2017-11-18T00:13:41.514Z,0
2017-11-18T00:14:41.761Z,0
2017-11-18T00:15:40.921Z,0
2017-11-18T00:16:41.176Z,0
2017-11-18T00:17:40.655Z,0
2017-11-18T00:18:41.414Z,0
2017-11-18T00:19:41.121Z,0
2017-11-18T00:20:41.093Z,0
2017-11-18T00:21:41.077Z,0
2017-11-18T00:22:41.602Z,0
2017-11-18T00:23:41.035Z,0
2017-11-18T00:24:40.476Z,0
2017-11-18T00:25:41.263Z,0
2017-11-18T00:26:40.965Z,0
2017-11-18T00:27:40.944Z,0
2017-11-18T00:28:40.928Z,0
2017-11-18T00:29:41.450Z,0
2017-11-18T00:30:41.434Z,0
2017-11-18T00:31:40.869Z,0
2017-11-18T00:32:40.843Z,0
2017-11-18T00:33:41.113Z,0
2017-11-18T00:34:40.798Z,0
2017-11-18T00:35:41.056Z,0
2017-11-18T00:36:40.755Z,0
2017-11-18T00:37:41.274Z,0
2017-11-18T00:38:40.435Z,0
2017-11-18T00:39:40.966Z,0
2017-11-18T00:40:40.693Z,0
2017-11-18T00:41:41.187Z,0
2017-11-18T00:42:40.651Z,0
2017-11-18T00:43:40.332Z,0
2017-11-18T00:44:40.587Z,0
2017-11-18T00:45:40.846Z,0
2017-11-18T00:46:40.275Z,0
2017-11-18T00:47:40.251Z,0
2017-11-18T00:48:40.764Z,0
2017-11-18T00:49:40.475Z,0
2017-11-18T00:50:40.473Z,0
2017-11-18T00:51:40.729Z,0
2017-11-18T00:52:40.949Z,0
2017-11-18T00:53:40.391Z,0
2017-11-18T00:54:40.650Z,0
2017-11-18T00:55:40.631Z,0
2017-11-18T00:56:40.060Z,0
2017-11-18T00:57:40.042Z,0
2017-11-18T00:58:40.029Z,0
2017-11-18T00:59:40.004Z,0
2017-11-18T01:00:40.239Z,0
2017-11-18T01:01:39.956Z,0
2017-11-18T01:02:39.933Z,0
2017-11-18T01:03:40.449Z,0
2017-11-18T01:04:40.429Z,0
2017-11-18T01:05:40.671Z,0
2017-11-18T01:06:40.115Z,0
2017-11-18T01:07:40.090Z,0
2017-11-18T01:08:40.072Z,0
2017-11-18T01:09:40.595Z,0
2017-11-18T01:10:40.030Z,0
2017-11-18T01:11:40.285Z,0
2017-11-18T01:12:40.261Z,0
2017-11-18T01:13:40.246Z,0
2017-11-18T01:14:40.231Z,0
2017-11-18T01:15:39.933Z,0
2017-11-18T01:16:40.179Z,0
2017-11-18T01:17:40.427Z,0
2017-11-18T01:18:40.144Z,0
2017-11-18T01:19:40.104Z,0
2017-11-18T01:20:39.548Z,0
2017-11-18T01:21:39.583Z,0
2017-11-18T01:22:40.326Z,0
2017-11-18T01:23:40.043Z,0
2017-11-18T01:24:40.054Z,0
2017-11-18T01:25:39.992Z,0
2017-11-18T01:26:39.419Z,0
2017-11-18T01:27:39.961Z,0
2017-11-18T01:28:39.644Z,0
2017-11-18T01:29:39.891Z,0
2017-11-18T01:30:39.609Z,0
2017-11-18T01:31:39.583Z,0
2017-11-18T01:32:39.557Z,0
2017-11-18T01:33:39.553Z,0
2017-11-18T01:34:39.524Z,0
2017-11-18T01:35:39.533Z,0
2017-11-18T01:36:39.209Z,0
2017-11-18T01:37:39.178Z,0
2017-11-18T01:38:38.892Z,0
2017-11-18T01:39:39.978Z,0
2017-11-18T01:40:39.388Z,0
2017-11-18T01:41:39.907Z,0
2017-11-18T01:42:39.345Z,0
2017-11-18T01:43:39.595Z,0
2017-11-18T01:44:39.839Z,0
2017-11-18T01:45:39.284Z,0
2017-11-18T01:46:39.269Z,0
2017-11-18T01:47:39.501Z,0
2017-11-18T01:48:39.486Z,0
2017-11-18T01:49:39.201Z,0
2017-11-18T01:50:39.436Z,0
2017-11-18T01:51:39.436Z,0
2017-11-18T01:52:39.145Z,0
2017-11-18T01:53:39.378Z,0
2017-11-18T01:54:38.812Z,0
2017-11-18T01:55:39.077Z,0
2017-11-18T01:56:39.307Z,0
2017-11-18T01:57:39.035Z,0
2017-11-18T01:58:39.269Z,0
2017-11-18T01:59:39.720Z,0
2017-11-18T02:00:38.957Z,0
2017-11-18T02:01:39.470Z,0
2017-11-18T02:02:39.184Z,0
2017-11-18T02:03:39.158Z,0
2017-11-18T02:04:39.427Z,0
2017-11-18T02:05:38.851Z,0
2017-11-18T02:06:38.828Z,0
2017-11-18T02:07:39.100Z,0
2017-11-18T02:08:39.059Z,0
2017-11-18T02:09:38.223Z,0
2017-11-18T02:10:39.018Z,0
2017-11-18T02:11:38.993Z,0
2017-11-18T02:12:38.716Z,0
2017-11-18T02:13:38.954Z,0
2017-11-18T02:14:38.933Z,0
2017-11-18T02:15:38.651Z,0
2017-11-18T02:16:38.949Z,0
2017-11-18T02:17:38.613Z,0
2017-11-18T02:18:38.849Z,0
2017-11-18T02:19:38.832Z,0
2017-11-18T02:20:38.299Z,0
2017-11-18T02:21:39.072Z,0
2017-11-18T02:22:39.064Z,0
2017-11-18T02:23:39.016Z,0
2017-11-18T02:24:38.452Z,0
2017-11-18T02:25:38.179Z,0
2017-11-18T02:26:38.433Z,0
2017-11-18T02:27:38.113Z,0
2017-11-18T02:28:38.107Z,0
2017-11-18T02:29:38.082Z,0
2017-11-18T02:30:38.327Z,0
2017-11-18T02:31:38.574Z,0
2017-11-18T02:32:38.009Z,0
2017-11-18T02:33:38.258Z,0
2017-11-18T02:34:38.248Z,0
2017-11-18T02:35:38.821Z,0
2017-11-18T02:36:37.935Z,0
2017-11-18T02:37:38.182Z,0
2017-11-18T02:38:38.171Z,0
2017-11-18T02:39:38.414Z,0
2017-11-18T02:40:38.401Z,0
2017-11-18T02:41:38.373Z,0
2017-11-18T02:42:38.352Z,0
2017-11-18T02:43:38.078Z,0
2017-11-18T02:44:38.614Z,0
2017-11-18T02:45:38.037Z,0
2017-11-18T02:46:37.994Z,0
2017-11-18T02:47:38.245Z,0
2017-11-18T02:48:37.953Z,0
2017-11-18T02:49:37.930Z,0
2017-11-18T02:50:37.647Z,0
2017-11-18T02:51:37.640Z,0
2017-11-18T02:52:37.333Z,0
2017-11-18T02:53:37.862Z,0
2017-11-18T02:54:37.830Z,0
2017-11-18T02:55:37.533Z,0
2017-11-18T02:56:37.510Z,0
2017-11-18T02:57:37.495Z,0
2017-11-18T02:58:37.466Z,0
2017-11-18T02:59:37.714Z,0
2017-11-18T03:00:37.966Z,0
2017-11-18T03:01:37.521Z,0
2017-11-18T03:02:37.933Z,0
2017-11-18T03:03:37.899Z,0
2017-11-18T03:04:38.212Z,0
2017-11-18T03:05:37.856Z,0
2017-11-18T03:06:37.574Z,0
2017-11-18T03:07:37.824Z,0
2017-11-18T03:08:37.533Z,0
2017-11-18T03:09:37.512Z,0
2017-11-18T03:10:37.784Z,0
2017-11-18T03:11:37.204Z,0
2017-11-18T03:12:37.182Z,0
2017-11-18T03:13:37.438Z,0
2017-11-18T03:14:37.681Z,0
2017-11-18T03:15:37.926Z,0
2017-11-18T03:16:37.650Z,0
2017-11-18T03:17:37.892Z,0
2017-11-18T03:18:37.595Z,0
2017-11-18T03:19:37.306Z,0
2017-11-18T03:20:37.282Z,0
2017-11-18T03:21:37.261Z,0
2017-11-18T03:22:37.509Z,0
2017-11-18T03:23:36.951Z,0
2017-11-18T03:24:37.476Z,0
2017-11-18T03:25:37.185Z,0
2017-11-18T03:26:37.437Z,0
2017-11-18T03:27:37.407Z,0
2017-11-18T03:28:36.850Z,0
2017-11-18T03:29:37.366Z,0
2017-11-18T03:30:37.647Z,0
2017-11-18T03:31:37.332Z,0
2017-11-18T03:32:37.050Z,0
2017-11-18T03:33:37.567Z,0
2017-11-18T03:34:37.271Z,0
2017-11-18T03:35:37.242Z,0
2017-11-18T03:36:36.699Z,0
2017-11-18T03:37:37.484Z,0
2017-11-18T03:38:36.913Z,0
2017-11-18T03:39:37.207Z,0
2017-11-18T03:40:37.412Z,0
2017-11-18T03:41:36.578Z,0
2017-11-18T03:42:37.099Z,0
2017-11-18T03:43:37.076Z,0
2017-11-18T03:44:36.520Z,0
2017-11-18T03:45:37.313Z,0
2017-11-18T03:46:36.482Z,0
2017-11-18T03:47:37.015Z,0
2017-11-18T03:48:36.424Z,0
2017-11-18T03:49:36.692Z,0
2017-11-18T03:50:36.399Z,0
2017-11-18T03:51:36.934Z,0
2017-11-18T03:52:36.921Z,0
2017-11-18T03:53:36.880Z,0
2017-11-18T03:54:36.872Z,0
2017-11-18T03:55:36.300Z,0
2017-11-18T03:56:36.276Z,0
2017-11-18T03:57:36.249Z,0
2017-11-18T03:58:36.770Z,0
2017-11-18T03:59:37.220Z,0
2017-11-18T04:00:36.720Z,0
2017-11-18T04:01:36.718Z,0
2017-11-18T04:02:36.688Z,0
2017-11-18T04:03:36.949Z,0
2017-11-18T04:04:36.100Z,0
2017-11-18T04:05:36.369Z,0
2017-11-18T04:06:36.062Z,0
2017-11-18T04:07:36.315Z,0
2017-11-18T04:08:36.578Z,0
2017-11-18T04:09:36.819Z,0
2017-11-18T04:10:36.254Z,0
2017-11-18T04:11:36.251Z,0
2017-11-18T04:12:35.665Z,0
2017-11-18T04:13:36.485Z,0
2017-11-18T04:14:35.901Z,0
2017-11-18T04:15:36.431Z,0
2017-11-18T04:16:35.852Z,0
2017-11-18T04:17:35.615Z,0
2017-11-18T04:18:35.823Z,0
2017-11-18T04:19:35.798Z,0
2017-11-18T04:20:36.043Z,0
2017-11-18T04:21:36.036Z,0
2017-11-18T04:22:36.005Z,0
2017-11-18T04:23:35.982Z,0
2017-11-18T04:24:36.235Z,0
2017-11-18T04:25:36.489Z,0
2017-11-18T04:26:35.930Z,0
2017-11-18T04:27:35.899Z,0
2017-11-18T04:28:36.151Z,0
2017-11-18T04:29:36.411Z,0
2017-11-18T04:30:35.571Z,0
2017-11-18T04:31:35.545Z,0
2017-11-18T04:32:35.801Z,0
2017-11-18T04:33:35.509Z,0
2017-11-18T04:34:36.031Z,0
2017-11-18T04:35:35.737Z,0
2017-11-18T04:36:36.014Z,0
2017-11-18T04:37:35.697Z,0
2017-11-18T04:38:35.972Z,0
2017-11-18T04:39:35.120Z,0
2017-11-18T04:40:35.637Z,0
2017-11-18T04:41:35.885Z,0
2017-11-18T04:42:35.896Z,0
2017-11-18T04:43:35.848Z,0
2017-11-18T04:44:35.541Z,0
2017-11-18T04:45:35.802Z,0
2017-11-18T04:46:35.771Z,0
2017-11-18T04:47:35.754Z,0
2017-11-18T04:48:35.485Z,0
2017-11-18T04:49:35.442Z,0
2017-11-18T04:50:35.695Z,0
2017-11-18T04:51:35.690Z,0
2017-11-18T04:52:35.928Z,0
2017-11-18T04:53:35.634Z,0
2017-11-18T04:54:35.663Z,0
2017-11-18T04:55:35.056Z,0
2017-11-18T04:56:35.032Z,0
2017-11-18T04:57:35.004Z,0
2017-11-18T04:58:35.857Z,0
2017-11-18T04:59:35.506Z,0
2017-11-18T05:00:34.942Z,0
2017-11-18T05:01:35.460Z,0
2017-11-18T05:02:35.436Z,0
2017-11-18T05:03:35.225Z,0
2017-11-18T05:04:35.409Z,0
2017-11-18T05:05:35.666Z,0
2017-11-18T05:06:35.102Z,0
2017-11-18T05:07:35.069Z,0
2017-11-18T05:08:35.054Z,0
2017-11-18T05:09:34.773Z,0
2017-11-18T05:10:35.302Z,0
2017-11-18T05:11:35.264Z,0
2017-11-18T05:12:35.238Z,0
2017-11-18T05:13:34.681Z,0
2017-11-18T05:14:35.197Z,0
2017-11-18T05:15:34.930Z,0
2017-11-18T05:16:35.157Z,0
2017-11-18T05:17:34.597Z,0
2017-11-18T05:18:34.844Z,0
2017-11-18T05:19:34.551Z,0
2017-11-18T05:20:34.809Z,0
2017-11-18T05:21:34.513Z,0
2017-11-18T05:22:35.037Z,0
2017-11-18T05:23:34.744Z,0
2017-11-18T05:24:34.465Z,0
2017-11-18T05:25:34.709Z,0
2017-11-18T05:26:34.951Z,0
2017-11-18T05:27:34.388Z,0
2017-11-18T05:28:34.684Z,0
2017-11-18T05:29:34.609Z,0
2017-11-18T05:30:35.146Z,0
2017-11-18T05:31:34.313Z,0
2017-11-18T05:32:34.281Z,0
2017-11-18T05:33:34.552Z,0
2017-11-18T05:34:34.523Z,0
2017-11-18T05:35:34.247Z,0
2017-11-18T05:36:34.752Z,0
2017-11-18T05:37:34.449Z,0
2017-11-18T05:38:34.760Z,0
2017-11-18T05:39:34.687Z,0
2017-11-18T05:40:34.694Z,0
2017-11-18T05:41:34.644Z,0
2017-11-18T05:42:34.355Z,0
2017-11-18T05:43:34.350Z,0
2017-11-18T05:44:34.580Z,0
2017-11-18T05:45:34.293Z,0
2017-11-18T05:46:34.592Z,0
2017-11-18T05:47:34.799Z,0
2017-11-18T05:48:34.489Z,0
2017-11-18T05:49:34.242Z,0
2017-11-18T05:50:34.190Z,0
2017-11-18T05:51:34.173Z,0
2017-11-18T05:52:33.880Z,0
2017-11-18T05:53:34.140Z,0
2017-11-18T05:54:34.653Z,0
2017-11-18T05:55:34.089Z,0
2017-11-18T05:56:33.808Z,0
2017-11-18T05:57:34.319Z,0
2017-11-18T05:58:34.035Z,0
2017-11-18T05:59:34.950Z,0
2017-11-18T06:00:34.005Z,0
2017-11-18T06:01:34.235Z,0
2017-11-18T06:02:34.490Z,0
2017-11-18T06:03:34.458Z,0
2017-11-18T06:04:33.898Z,0
2017-11-18T06:05:33.874Z,0
2017-11-18T06:06:33.853Z,0
2017-11-18T06:07:33.834Z,0
2017-11-18T06:08:34.114Z,0
2017-11-18T06:09:33.584Z,0
2017-11-18T06:10:34.043Z,0
2017-11-18T06:11:34.036Z,0
2017-11-18T06:12:34.014Z,0
2017-11-18T06:13:33.724Z,0
2017-11-18T06:14:34.235Z,0
2017-11-18T06:15:33.405Z,0
2017-11-18T06:16:33.923Z,0
2017-11-18T06:17:33.355Z,0
2017-11-18T06:18:34.379Z,0
2017-11-18T06:19:33.696Z,0
2017-11-18T06:20:33.594Z,0
2017-11-18T06:21:33.294Z,0
2017-11-18T06:22:33.524Z,0
2017-11-18T06:23:33.798Z,0
2017-11-18T06:24:33.248Z,0
2017-11-18T06:25:33.220Z,0
2017-11-18T06:26:33.745Z,0
2017-11-18T06:27:33.425Z,0
2017-11-18T06:28:33.683Z,0
2017-11-18T06:29:33.392Z,0
2017-11-18T06:30:33.099Z,0
2017-11-18T06:31:33.607Z,0
2017-11-18T06:32:33.049Z,0
2017-11-18T06:33:33.573Z,0
2017-11-18T06:34:33.564Z,0
2017-11-18T06:35:33.523Z,0
2017-11-18T06:36:33.776Z,0
2017-11-18T06:37:32.939Z,0
2017-11-18T06:38:32.925Z,0
2017-11-18T06:39:32.632Z,0
2017-11-18T06:40:33.153Z,0
2017-11-18T06:41:33.128Z,0
2017-11-18T06:42:33.653Z,0
2017-11-18T06:43:32.560Z,0
2017-11-18T06:44:32.798Z,0
2017-11-18T06:45:32.797Z,0
2017-11-18T06:46:33.042Z,0
2017-11-18T06:47:33.004Z,0
2017-11-18T06:48:33.274Z,0
2017-11-18T06:49:32.702Z,0
2017-11-18T06:50:33.218Z,0
2017-11-18T06:51:33.203Z,0
2017-11-18T06:52:33.481Z,0
2017-11-18T06:53:32.883Z,0
2017-11-18T06:54:32.915Z,0
2017-11-18T06:55:32.870Z,0
2017-11-18T06:56:32.560Z,0
2017-11-18T06:57:32.544Z,0
2017-11-18T06:58:33.067Z,0
2017-11-18T06:59:33.036Z,0
2017-11-18T07:00:32.747Z,0
2017-11-18T07:01:33.012Z,0
2017-11-18T07:02:32.991Z,0
2017-11-18T07:03:32.956Z,0
2017-11-18T07:04:32.497Z,0
2017-11-18T07:05:32.672Z,0
2017-11-18T07:06:32.364Z,0
2017-11-18T07:07:32.068Z,0
2017-11-18T07:08:32.362Z,0
2017-11-18T07:09:32.566Z,0
2017-11-18T07:10:32.265Z,0
2017-11-18T07:11:32.545Z,0
2017-11-18T07:12:32.493Z,0
2017-11-18T07:13:32.753Z,0
2017-11-18T07:14:32.735Z,5
2017-11-18T07:15:32.989Z,5
2017-11-18T07:16:32.693Z,5
2017-11-18T07:17:32.413Z,5
2017-11-18T07:18:32.929Z,5
2017-11-18T07:19:32.088Z,5
2017-11-18T07:20:32.344Z,5
2017-11-18T07:21:31.771Z,5
2017-11-18T07:22:32.298Z,5
2017-11-18T07:23:32.005Z,5
2017-11-18T07:24:32.798Z,5
2017-11-18T07:25:32.781Z,5
2017-11-18T07:26:31.946Z,5
2017-11-18T07:27:31.927Z,5
2017-11-18T07:28:32.181Z,5
2017-11-18T07:29:32.180Z,5
2017-11-18T07:30:32.131Z,5
2017-11-18T07:31:32.656Z,5
2017-11-18T07:32:32.101Z,5
2017-11-18T07:33:31.796Z,5
2017-11-18T07:34:32.327Z,5
2017-11-18T07:35:32.036Z,10
2017-11-18T07:36:31.737Z,10
2017-11-18T07:37:31.722Z,10
2017-11-18T07:38:31.965Z,10
2017-11-18T07:39:32.222Z,10
2017-11-18T07:40:32.198Z,10
2017-11-18T07:41:31.909Z,10
2017-11-18T07:42:32.149Z,10
2017-11-18T07:43:31.859Z,10
2017-11-18T07:44:31.864Z,10
2017-11-18T07:45:32.119Z,15
2017-11-18T07:46:31.565Z,15
2017-11-18T07:47:32.062Z,15
2017-11-18T07:48:31.226Z,15
2017-11-18T07:49:31.740Z,15
2017-11-18T07:50:31.719Z,15
2017-11-18T07:51:32.260Z,20
2017-11-18T07:52:31.413Z,20
2017-11-18T07:53:31.939Z,20
2017-11-18T07:54:31.646Z,20
2017-11-18T07:55:31.613Z,20
2017-11-18T07:56:31.597Z,20
2017-11-18T07:57:32.119Z,20
2017-11-18T07:58:31.579Z,20
2017-11-18T07:59:31.263Z,25
2017-11-18T08:00:31.774Z,25
2017-11-18T08:01:31.778Z,20
2017-11-18T08:02:31.475Z,20
2017-11-18T08:03:31.723Z,25
2017-11-18T08:04:31.728Z,20
2017-11-18T08:05:31.688Z,20
2017-11-18T08:06:31.120Z,20
2017-11-18T08:07:31.107Z,20
2017-11-18T08:08:31.617Z,20
2017-11-18T08:09:31.609Z,20
2017-11-18T08:10:31.595Z,25
2017-11-18T08:11:30.749Z,20
2017-11-18T08:12:31.000Z,25
2017-11-18T08:13:30.983Z,25
2017-11-18T08:14:31.240Z,25
2017-11-18T08:15:31.261Z,25
2017-11-18T08:16:31.203Z,25
2017-11-18T08:17:31.192Z,25
2017-11-18T08:18:31.422Z,25
2017-11-18T08:19:31.138Z,25
2017-11-18T08:20:31.405Z,25
2017-11-18T08:21:31.365Z,25
2017-11-18T08:22:31.610Z,25
2017-11-18T08:23:31.316Z,25
2017-11-18T08:24:31.082Z,25
2017-11-18T08:25:31.298Z,20
2017-11-18T08:26:31.263Z,20
2017-11-18T08:27:30.974Z,20
2017-11-18T08:28:30.946Z,20
2017-11-18T08:29:31.461Z,20
2017-11-18T08:30:30.908Z,20
2017-11-18T08:31:30.612Z,15
2017-11-18T08:32:31.129Z,15
2017-11-18T08:33:30.850Z,15
2017-11-18T08:34:31.099Z,15
2017-11-18T08:35:31.339Z,20
2017-11-18T08:36:31.106Z,20
2017-11-18T08:37:31.299Z,20
2017-11-18T08:38:30.742Z,20
2017-11-18T08:39:31.036Z,15
2017-11-18T08:40:30.701Z,15
2017-11-18T08:41:30.948Z,15
2017-11-18T08:42:30.967Z,15
2017-11-18T08:43:30.374Z,15
2017-11-18T08:44:30.350Z,15
2017-11-18T08:45:30.654Z,15
2017-11-18T08:46:30.306Z,15
2017-11-18T08:47:31.101Z,15
2017-11-18T08:48:30.267Z,15
2017-11-18T08:49:30.247Z,20
2017-11-18T08:50:30.244Z,20
2017-11-18T08:51:31.026Z,20
2017-11-18T08:52:30.451Z,20
2017-11-18T08:53:30.982Z,20
2017-11-18T08:54:30.687Z,20
2017-11-18T08:55:31.004Z,20
2017-11-18T08:56:30.372Z,20
2017-11-18T08:57:30.085Z,20
2017-11-18T08:58:30.331Z,20
2017-11-18T08:59:30.356Z,20
2017-11-18T09:00:30.024Z,20
2017-11-18T09:01:30.282Z,20
2017-11-18T09:02:29.993Z,20
2017-11-18T09:03:30.229Z,20
2017-11-18T09:04:30.232Z,20
2017-11-18T09:05:30.782Z,20
2017-11-18T09:06:30.713Z,20
2017-11-18T09:07:30.265Z,20
2017-11-18T09:08:30.401Z,20
2017-11-18T09:09:30.394Z,20
2017-11-18T09:10:30.357Z,20
2017-11-18T09:11:30.084Z,20
2017-11-18T09:12:30.054Z,25
2017-11-18T09:13:30.035Z,25
2017-11-18T09:14:30.009Z,30
2017-11-18T09:15:30.262Z,30
2017-11-18T09:16:29.975Z,35
2017-11-18T09:17:29.687Z,40
2017-11-18T09:18:30.467Z,35
2017-11-18T09:19:30.184Z,30
2017-11-18T09:20:30.183Z,35
2017-11-18T09:21:30.135Z,40
2017-11-18T09:22:30.117Z,35
2017-11-18T09:23:30.108Z,35
2017-11-18T09:24:29.542Z,30
2017-11-18T09:25:29.792Z,30
2017-11-18T09:26:29.770Z,35
2017-11-18T09:27:29.547Z,45
2017-11-18T09:28:30.282Z,45
2017-11-18T09:29:29.708Z,40
2017-11-18T09:30:29.696Z,40
2017-11-18T09:31:29.670Z,45
2017-11-18T09:32:29.387Z,55
2017-11-18T09:33:30.180Z,55
2017-11-18T09:34:29.343Z,50
2017-11-18T09:35:29.867Z,45
2017-11-18T09:36:29.835Z,50
2017-11-18T09:37:29.290Z,55
2017-11-18T09:38:29.256Z,50
2017-11-18T09:39:29.514Z,55
2017-11-18T09:40:29.218Z,60
2017-11-18T09:41:29.469Z,55
2017-11-18T09:42:29.177Z,55
2017-11-18T09:43:29.165Z,55
2017-11-18T09:44:29.687Z,60
2017-11-18T09:45:29.943Z,55
2017-11-18T09:46:29.371Z,50
2017-11-18T09:47:29.900Z,50
2017-11-18T09:48:29.320Z,45
2017-11-18T09:49:29.581Z,40
2017-11-18T09:50:29.021Z,35
2017-11-18T09:51:29.267Z,40
2017-11-18T09:52:28.704Z,35
2017-11-18T09:53:29.764Z,30
2017-11-18T09:54:29.222Z,30
2017-11-18T09:55:29.682Z,30
2017-11-18T09:56:28.913Z,30
2017-11-18T09:57:29.148Z,30
2017-11-18T09:58:29.128Z,35
2017-11-18T09:59:28.845Z,40
2017-11-18T10:00:29.021Z,40
2017-11-18T10:01:29.338Z,45
2017-11-18T10:02:29.330Z,40
2017-11-18T10:03:29.088Z,45
2017-11-18T10:04:29.278Z,45
2017-11-18T10:05:28.985Z,50
2017-11-18T10:06:28.973Z,65
2017-11-18T10:07:29.234Z,70
2017-11-18T10:08:29.201Z,65
2017-11-18T10:09:28.925Z,65
2017-11-18T10:10:29.178Z,65
2017-11-18T10:11:29.145Z,60
2017-11-18T10:12:28.579Z,55
2017-11-18T10:13:28.829Z,50
2017-11-18T10:14:29.085Z,45
2017-11-18T10:15:29.349Z,45
2017-11-18T10:16:28.776Z,40
2017-11-18T10:17:29.047Z,35
2017-11-18T10:18:28.763Z,35
2017-11-18T10:19:29.267Z,45
2017-11-18T10:20:28.958Z,55
2017-11-18T10:21:28.405Z,80
2017-11-18T10:22:28.678Z,110
2017-11-18T10:23:28.634Z,115
2017-11-18T10:24:28.608Z,105
2017-11-18T10:25:28.598Z,105
2017-11-18T10:26:28.295Z,115
2017-11-18T10:27:28.554Z,120
2017-11-18T10:28:28.256Z,125
2017-11-18T10:29:28.237Z,125
2017-11-18T10:30:28.240Z,115
2017-11-18T10:31:28.760Z,110
2017-11-18T10:32:28.177Z,115
2017-11-18T10:33:28.537Z,110
2017-11-18T10:34:28.978Z,95
2017-11-18T10:35:28.668Z,85
2017-11-18T10:36:28.111Z,80
2017-11-18T10:37:28.081Z,85
2017-11-18T10:38:28.335Z,90
2017-11-18T10:39:28.052Z,95
2017-11-18T10:40:28.299Z,95
2017-11-18T10:41:28.280Z,95
2017-11-18T10:42:28.528Z,100
2017-11-18T10:43:27.970Z,100
2017-11-18T10:44:28.488Z,95
2017-11-18T10:45:27.936Z,100
2017-11-18T10:46:28.191Z,105
2017-11-18T10:47:28.706Z,140
2017-11-18T10:48:28.154Z,160
2017-11-18T10:49:28.126Z,145
2017-11-18T10:50:28.390Z,105
2017-11-18T10:51:28.013Z,85
2017-11-18T10:52:28.350Z,90
2017-11-18T10:53:28.057Z,120
2017-11-18T10:54:28.296Z,135
2017-11-18T10:55:28.549Z,145
2017-11-18T10:56:28.266Z,145
2017-11-18T10:57:28.237Z,155
2017-11-18T10:58:27.997Z,175
2017-11-18T10:59:27.927Z,180
2017-11-18T11:00:28.177Z,170
2017-11-18T11:01:27.612Z,165
2017-11-18T11:02:27.888Z,450
2017-11-18T11:03:27.875Z,180
2017-11-18T11:04:27.568Z,180
2017-11-18T11:05:28.350Z,155
2017-11-18T11:06:27.817Z,140
2017-11-18T11:07:28.069Z,135
2017-11-18T11:08:27.751Z,130
2017-11-18T11:09:27.460Z,125
2017-11-18T11:10:27.987Z,125
2017-11-18T11:11:28.272Z,120
2017-11-18T11:12:27.950Z,115
2017-11-18T11:13:27.665Z,110
2017-11-18T11:14:27.645Z,100
2017-11-18T11:15:27.642Z,85
2017-11-18T11:16:27.325Z,75
2017-11-18T11:17:27.047Z,85
2017-11-18T11:18:27.565Z,90
2017-11-18T11:19:27.552Z,90
2017-11-18T11:20:27.545Z,95
2017-11-18T11:21:28.077Z,95
2017-11-18T11:22:27.759Z,110
2017-11-18T11:23:27.757Z,125
2017-11-18T11:24:27.173Z,115
2017-11-18T11:25:27.162Z,115
2017-11-18T11:26:27.433Z,95
2017-11-18T11:27:27.397Z,95
2017-11-18T11:28:27.656Z,105
2017-11-18T11:29:27.361Z,90
2017-11-18T11:30:27.053Z,100
2017-11-18T11:31:27.593Z,110
2017-11-18T11:32:27.839Z,125
2017-11-18T11:33:27.004Z,130
2017-11-18T11:34:27.803Z,140
2017-11-18T11:35:27.534Z,140
2017-11-18T11:36:27.219Z,140
2017-11-18T11:37:27.468Z,155
2017-11-18T11:38:27.184Z,180
2017-11-18T11:39:26.892Z,205
2017-11-18T11:40:26.864Z,200
2017-11-18T11:41:26.854Z,175
2017-11-18T11:42:27.375Z,170
2017-11-18T11:43:27.088Z,170
2017-11-18T11:44:27.334Z,160
2017-11-18T11:45:27.041Z,165
2017-11-18T11:46:27.322Z,190
2017-11-18T11:47:27.285Z,250
2017-11-18T11:48:27.269Z,285
2017-11-18T11:49:26.974Z,260
2017-11-18T11:50:27.246Z,195
2017-11-18T11:51:26.959Z,185
2017-11-18T11:52:26.934Z,210
2017-11-18T11:53:26.357Z,290
2017-11-18T11:54:26.888Z,465
2017-11-18T11:55:27.403Z,330
2017-11-18T11:56:26.844Z,400
2017-11-18T11:57:26.593Z,485
2017-11-18T11:58:27.089Z,530
2017-11-18T11:59:27.361Z,255
2017-11-18T12:00:27.260Z,220
2017-11-18T12:01:26.764Z,200
2017-11-18T12:02:27.034Z,435
2017-11-18T12:03:27.276Z,380
2017-11-18T12:04:26.970Z,285
2017-11-18T12:05:26.688Z,250
2017-11-18T12:06:26.952Z,300
2017-11-18T12:07:26.921Z,280
2017-11-18T12:08:26.914Z,200
2017-11-18T12:09:26.906Z,150
2017-11-18T12:10:26.608Z,145
2017-11-18T12:11:26.599Z,170
2017-11-18T12:12:26.578Z,425
2017-11-18T12:13:26.571Z,480
2017-11-18T12:14:26.814Z,250
2017-11-18T12:15:27.083Z,230
2017-11-18T12:16:26.787Z,175
2017-11-18T12:17:26.224Z,190
2017-11-18T12:18:26.497Z,170
2017-11-18T12:19:27.005Z,135
2017-11-18T12:20:26.559Z,135
2017-11-18T12:21:26.706Z,125
2017-11-18T12:22:26.696Z,130
2017-11-18T12:23:25.862Z,210
2017-11-18T12:24:26.382Z,320
2017-11-18T12:25:26.921Z,510
2017-11-18T12:26:26.643Z,425
2017-11-18T12:27:26.067Z,300
2017-11-18T12:28:25.773Z,295
2017-11-18T12:29:26.850Z,570
2017-11-18T12:30:26.583Z,410
2017-11-18T12:31:26.599Z,345
2017-11-18T12:32:25.988Z,440
2017-11-18T12:33:26.162Z,330
2017-11-18T12:34:26.229Z,260
2017-11-18T12:35:26.476Z,210
2017-11-18T12:36:26.210Z,215
2017-11-18T12:37:25.918Z,185
2017-11-18T12:38:26.164Z,150
2017-11-18T12:39:25.908Z,100
2017-11-18T12:40:26.407Z,80
2017-11-18T12:41:26.104Z,80
2017-11-18T12:42:26.363Z,80
2017-11-18T12:43:26.079Z,75
2017-11-18T12:44:26.339Z,80
2017-11-18T12:45:26.044Z,80
2017-11-18T12:46:26.292Z,85
2017-11-18T12:47:26.010Z,70
2017-11-18T12:48:25.720Z,65
2017-11-18T12:49:25.974Z,65
2017-11-18T12:50:26.227Z,60
2017-11-18T12:51:26.229Z,50
2017-11-18T12:52:25.927Z,50
2017-11-18T12:53:25.922Z,45
2017-11-18T12:54:25.892Z,50
2017-11-18T12:55:25.611Z,50
2017-11-18T12:56:26.134Z,50
2017-11-18T12:57:25.296Z,50
2017-11-18T12:58:25.548Z,45
2017-11-18T12:59:25.801Z,45
2017-11-18T13:00:25.522Z,45
2017-11-18T13:01:25.510Z,40
2017-11-18T13:02:25.484Z,45
2017-11-18T13:03:26.003Z,45
2017-11-18T13:04:26.258Z,45
2017-11-18T13:05:25.967Z,45
2017-11-18T13:06:25.956Z,45
2017-11-18T13:07:25.672Z,45
2017-11-18T13:08:26.187Z,45
2017-11-18T13:09:26.174Z,45
2017-11-18T13:10:25.337Z,45
2017-11-18T13:11:25.584Z,45
2017-11-18T13:12:25.843Z,50
2017-11-18T13:13:25.288Z,60
2017-11-18T13:14:26.068Z,70
2017-11-18T13:15:25.507Z,80
2017-11-18T13:16:25.217Z,80
2017-11-18T13:17:25.225Z,55
2017-11-18T13:18:25.183Z,50
2017-11-18T13:19:25.163Z,45
2017-11-18T13:20:25.141Z,40
2017-11-18T13:21:25.706Z,45
2017-11-18T13:22:25.116Z,55
2017-11-18T13:23:25.630Z,40
2017-11-18T13:24:25.349Z,30
2017-11-18T13:25:25.263Z,30
2017-11-18T13:26:25.585Z,30
2017-11-18T13:27:25.825Z,30
2017-11-18T13:28:25.266Z,30
2017-11-18T13:29:25.516Z,20
2017-11-18T13:30:25.498Z,15
2017-11-18T13:31:25.218Z,15
2017-11-18T13:32:25.490Z,15
2017-11-18T13:33:25.172Z,10
2017-11-18T13:34:25.150Z,15
2017-11-18T13:35:25.678Z,20
2017-11-18T13:36:24.845Z,25
2017-11-18T13:37:24.824Z,20
2017-11-18T13:38:25.074Z,15
2017-11-18T13:39:25.363Z,15
2017-11-18T13:40:25.577Z,15
2017-11-18T13:41:24.754Z,15
2017-11-18T13:42:25.016Z,10
2017-11-18T13:43:25.009Z,10
2017-11-18T13:44:24.962Z,5
2017-11-18T13:45:24.941Z,5
2017-11-18T13:46:24.921Z,5
2017-11-18T13:47:24.901Z,10
2017-11-18T13:48:24.916Z,10
2017-11-18T13:49:25.140Z,15
2017-11-18T13:50:25.124Z,10
2017-11-18T13:51:24.826Z,10
2017-11-18T13:52:25.079Z,10
2017-11-18T13:53:24.793Z,15
2017-11-18T13:54:24.503Z,10
2017-11-18T13:55:24.755Z,10
2017-11-18T13:56:24.469Z,10
2017-11-18T13:57:24.451Z,10
2017-11-18T13:58:24.156Z,10
2017-11-18T13:59:24.945Z,10
2017-11-18T14:00:24.659Z,10
2017-11-18T14:01:24.912Z,15
2017-11-18T14:02:25.171Z,15
2017-11-18T14:03:24.884Z,15
2017-11-18T14:04:24.852Z,15
2017-11-18T14:05:24.295Z,20
2017-11-18T14:06:24.284Z,25
2017-11-18T14:07:24.258Z,15
2017-11-18T14:08:24.807Z,10
2017-11-18T14:09:24.215Z,10
2017-11-18T14:10:25.007Z,15
2017-11-18T14:11:24.444Z,20
2017-11-18T14:12:24.423Z,20
2017-11-18T14:13:24.682Z,15
2017-11-18T14:14:24.377Z,15
2017-11-18T14:15:23.819Z,15
2017-11-18T14:16:24.613Z,35
2017-11-18T14:17:24.600Z,40
2017-11-18T14:18:24.852Z,25
2017-11-18T14:19:24.592Z,20
2017-11-18T14:20:24.539Z,30
2017-11-18T14:21:24.257Z,40
2017-11-18T14:22:24.496Z,50
2017-11-18T14:23:24.215Z,55
2017-11-18T14:24:24.213Z,55
2017-11-18T14:25:24.711Z,55
2017-11-18T14:26:24.424Z,50
2017-11-18T14:27:23.859Z,50